sensor_id;sensor_type;location;lat;lon;timestamp;P1;durP1;ratioP1;P2;durP2;ratioP2
57730;SDS011;43570;47.476;19.040;2023-09-08T00:02:26;8.50;;;5.87;;
57730;SDS011;43570;47.476;19.040;2023-09-08T00:04:52;8.23;;;5.95;;
57730;SDS011;43570;47.476;19.040;2023-09-08T00:07:18;7.82;;;6.25;;
57730;SDS011;43570;47.476;19.040;2023-09-08T00:09:43;9.27;;;5.87;;
57730;SDS011;43570;47.476;19.040;2023-09-08T00:12:10;8.43;;;5.60;;
57730;SDS011;43570;47.476;19.040;2023-09-08T00:14:35;8.27;;;5.93;;
57730;SDS011;43570;47.476;19.040;2023-09-08T00:17:01;9.73;;;6.28;;
57730;SDS011;43570;47.476;19.040;2023-09-08T00:19:26;8.27;;;5.68;;
57730;SDS011;43570;47.476;19.040;2023-09-08T00:21:52;6.55;;;5.12;;
57730;SDS011;43570;47.476;19.040;2023-09-08T00:24:18;7.05;;;5.20;;
57730;SDS011;43570;47.476;19.040;2023-09-08T00:26:43;8.65;;;5.80;;
57730;SDS011;43570;47.476;19.040;2023-09-08T00:29:08;8.15;;;5.50;;
57730;SDS011;43570;47.476;19.040;2023-09-08T00:31:34;8.65;;;5.40;;
57730;SDS011;43570;47.476;19.040;2023-09-08T00:33:59;9.20;;;5.65;;
57730;SDS011;43570;47.476;19.040;2023-09-08T00:36:25;8.10;;;5.78;;
57730;SDS011;43570;47.476;19.040;2023-09-08T00:38:50;10.82;;;5.80;;
57730;SDS011;43570;47.476;19.040;2023-09-08T00:41:16;7.93;;;5.35;;
57730;SDS011;43570;47.476;19.040;2023-09-08T00:43:41;14.30;;;6.53;;
57730;SDS011;43570;47.476;19.040;2023-09-08T00:46:06;8.35;;;5.45;;
57730;SDS011;43570;47.476;19.040;2023-09-08T00:48:33;9.20;;;5.82;;
57730;SDS011;43570;47.476;19.040;2023-09-08T00:51:00;7.35;;;5.72;;
57730;SDS011;43570;47.476;19.040;2023-09-08T00:53:25;8.88;;;5.82;;
57730;SDS011;43570;47.476;19.040;2023-09-08T00:55:51;10.32;;;6.15;;
57730;SDS011;43570;47.476;19.040;2023-09-08T00:58:16;7.57;;;5.57;;
57730;SDS011;43570;47.476;19.040;2023-09-08T01:00:42;6.85;;;5.15;;
57730;SDS011;43570;47.476;19.040;2023-09-08T01:03:07;8.27;;;5.78;;
57730;SDS011;43570;47.476;19.040;2023-09-08T01:05:32;7.40;;;5.70;;
57730;SDS011;43570;47.476;19.040;2023-09-08T01:07:59;8.30;;;5.82;;
57730;SDS011;43570;47.476;19.040;2023-09-08T01:10:24;8.35;;;5.85;;
57730;SDS011;43570;47.476;19.040;2023-09-08T01:12:50;7.45;;;5.78;;
57730;SDS011;43570;47.476;19.040;2023-09-08T01:15:15;9.23;;;5.90;;
57730;SDS011;43570;47.476;19.040;2023-09-08T01:17:40;9.30;;;6.12;;
57730;SDS011;43570;47.476;19.040;2023-09-08T01:20:09;8.80;;;5.78;;
57730;SDS011;43570;47.476;19.040;2023-09-08T01:25:26;6.95;;;5.40;;
57730;SDS011;43570;47.476;19.040;2023-09-08T01:27:52;7.53;;;5.75;;
57730;SDS011;43570;47.476;19.040;2023-09-08T01:30:21;7.00;;;5.60;;
57730;SDS011;43570;47.476;19.040;2023-09-08T01:32:49;8.00;;;5.68;;
57730;SDS011;43570;47.476;19.040;2023-09-08T01:35:15;9.30;;;5.87;;
57730;SDS011;43570;47.476;19.040;2023-09-08T01:37:42;8.70;;;6.03;;
57730;SDS011;43570;47.476;19.040;2023-09-08T01:40:10;8.18;;;5.68;;
57730;SDS011;43570;47.476;19.040;2023-09-08T01:42:36;7.15;;;5.60;;
57730;SDS011;43570;47.476;19.040;2023-09-08T01:45:02;11.63;;;6.20;;
57730;SDS011;43570;47.476;19.040;2023-09-08T01:47:29;7.82;;;5.30;;
57730;SDS011;43570;47.476;19.040;2023-09-08T01:49:54;7.32;;;5.72;;
57730;SDS011;43570;47.476;19.040;2023-09-08T01:52:20;8.55;;;6.18;;
57730;SDS011;43570;47.476;19.040;2023-09-08T01:54:45;14.40;;;7.65;;
57730;SDS011;43570;47.476;19.040;2023-09-08T01:57:10;8.13;;;5.45;;
57730;SDS011;43570;47.476;19.040;2023-09-08T01:59:36;8.70;;;5.90;;
57730;SDS011;43570;47.476;19.040;2023-09-08T02:02:02;7.93;;;5.87;;
57730;SDS011;43570;47.476;19.040;2023-09-08T02:04:28;9.10;;;5.47;;
57730;SDS011;43570;47.476;19.040;2023-09-08T02:06:53;8.23;;;6.12;;
57730;SDS011;43570;47.476;19.040;2023-09-08T02:09:19;10.02;;;5.97;;
57730;SDS011;43570;47.476;19.040;2023-09-08T02:11:44;9.00;;;5.95;;
57730;SDS011;43570;47.476;19.040;2023-09-08T02:14:10;10.45;;;5.80;;
57730;SDS011;43570;47.476;19.040;2023-09-08T02:16:35;8.48;;;5.95;;
57730;SDS011;43570;47.476;19.040;2023-09-08T02:19:00;8.95;;;6.40;;
57730;SDS011;43570;47.476;19.040;2023-09-08T02:21:26;11.55;;;7.80;;
57730;SDS011;43570;47.476;19.040;2023-09-08T02:23:51;7.57;;;6.12;;
57730;SDS011;43570;47.476;19.040;2023-09-08T02:26:16;11.05;;;6.05;;
57730;SDS011;43570;47.476;19.040;2023-09-08T02:28:42;7.53;;;6.00;;
57730;SDS011;43570;47.476;19.040;2023-09-08T02:31:07;7.97;;;6.35;;
57730;SDS011;43570;47.476;19.040;2023-09-08T02:33:33;7.93;;;6.15;;
57730;SDS011;43570;47.476;19.040;2023-09-08T02:36:03;10.65;;;6.60;;
57730;SDS011;43570;47.476;19.040;2023-09-08T02:38:30;9.45;;;6.50;;
57730;SDS011;43570;47.476;19.040;2023-09-08T02:40:55;9.02;;;6.75;;
57730;SDS011;43570;47.476;19.040;2023-09-08T02:43:21;8.95;;;6.50;;
57730;SDS011;43570;47.476;19.040;2023-09-08T02:45:46;8.93;;;6.45;;
57730;SDS011;43570;47.476;19.040;2023-09-08T02:48:12;9.18;;;7.12;;
57730;SDS011;43570;47.476;19.040;2023-09-08T02:50:37;8.75;;;6.37;;
57730;SDS011;43570;47.476;19.040;2023-09-08T02:53:03;8.60;;;5.93;;
57730;SDS011;43570;47.476;19.040;2023-09-08T02:55:28;10.48;;;6.47;;
57730;SDS011;43570;47.476;19.040;2023-09-08T02:57:55;8.27;;;6.47;;
57730;SDS011;43570;47.476;19.040;2023-09-08T03:00:21;9.60;;;6.50;;
57730;SDS011;43570;47.476;19.040;2023-09-08T03:02:46;8.07;;;6.50;;
57730;SDS011;43570;47.476;19.040;2023-09-08T03:05:11;9.43;;;6.50;;
57730;SDS011;43570;47.476;19.040;2023-09-08T03:07:37;7.85;;;6.40;;
57730;SDS011;43570;47.476;19.040;2023-09-08T03:10:04;9.07;;;6.78;;
57730;SDS011;43570;47.476;19.040;2023-09-08T03:12:30;9.30;;;6.50;;
57730;SDS011;43570;47.476;19.040;2023-09-08T03:14:55;11.57;;;6.07;;
57730;SDS011;43570;47.476;19.040;2023-09-08T03:17:21;9.20;;;6.55;;
57730;SDS011;43570;47.476;19.040;2023-09-08T03:19:46;11.43;;;7.35;;
57730;SDS011;43570;47.476;19.040;2023-09-08T03:22:11;8.35;;;6.07;;
57730;SDS011;43570;47.476;19.040;2023-09-08T03:24:37;11.57;;;7.28;;
57730;SDS011;43570;47.476;19.040;2023-09-08T03:27:02;8.82;;;6.68;;
57730;SDS011;43570;47.476;19.040;2023-09-08T03:29:28;9.82;;;6.40;;
57730;SDS011;43570;47.476;19.040;2023-09-08T03:31:53;10.73;;;6.60;;
57730;SDS011;43570;47.476;19.040;2023-09-08T03:34:18;11.05;;;7.62;;
57730;SDS011;43570;47.476;19.040;2023-09-08T03:36:45;10.10;;;7.03;;
57730;SDS011;43570;47.476;19.040;2023-09-08T03:39:11;10.80;;;6.72;;
57730;SDS011;43570;47.476;19.040;2023-09-08T03:41:36;9.45;;;6.40;;
57730;SDS011;43570;47.476;19.040;2023-09-08T03:44:02;8.27;;;6.85;;
57730;SDS011;43570;47.476;19.040;2023-09-08T03:46:27;9.80;;;6.80;;
57730;SDS011;43570;47.476;19.040;2023-09-08T03:48:52;9.15;;;7.20;;
57730;SDS011;43570;47.476;19.040;2023-09-08T03:51:23;14.50;;;7.87;;
57730;SDS011;43570;47.476;19.040;2023-09-08T03:53:49;10.40;;;6.75;;
57730;SDS011;43570;47.476;19.040;2023-09-08T03:56:14;12.18;;;7.20;;
57730;SDS011;43570;47.476;19.040;2023-09-08T03:58:40;8.73;;;6.78;;
57730;SDS011;43570;47.476;19.040;2023-09-08T04:01:05;11.65;;;7.90;;
57730;SDS011;43570;47.476;19.040;2023-09-08T04:03:30;10.75;;;7.12;;
57730;SDS011;43570;47.476;19.040;2023-09-08T04:05:56;9.27;;;7.07;;
57730;SDS011;43570;47.476;19.040;2023-09-08T04:08:21;9.93;;;7.82;;
57730;SDS011;43570;47.476;19.040;2023-09-08T04:10:46;10.55;;;7.35;;
57730;SDS011;43570;47.476;19.040;2023-09-08T04:13:13;11.82;;;7.25;;
57730;SDS011;43570;47.476;19.040;2023-09-08T04:15:38;10.15;;;7.12;;
57730;SDS011;43570;47.476;19.040;2023-09-08T04:18:05;8.77;;;7.03;;
57730;SDS011;43570;47.476;19.040;2023-09-08T04:20:33;8.80;;;6.93;;
57730;SDS011;43570;47.476;19.040;2023-09-08T04:22:58;11.23;;;7.25;;
57730;SDS011;43570;47.476;19.040;2023-09-08T04:25:24;12.35;;;8.52;;
57730;SDS011;43570;47.476;19.040;2023-09-08T04:27:50;11.73;;;7.80;;
57730;SDS011;43570;47.476;19.040;2023-09-08T04:30:15;9.95;;;7.40;;
57730;SDS011;43570;47.476;19.040;2023-09-08T04:32:40;9.82;;;7.62;;
57730;SDS011;43570;47.476;19.040;2023-09-08T04:35:06;12.18;;;8.48;;
57730;SDS011;43570;47.476;19.040;2023-09-08T04:37:32;12.60;;;8.18;;
57730;SDS011;43570;47.476;19.040;2023-09-08T04:39:57;11.80;;;7.70;;
57730;SDS011;43570;47.476;19.040;2023-09-08T04:42:23;15.05;;;9.05;;
57730;SDS011;43570;47.476;19.040;2023-09-08T04:44:48;8.63;;;7.03;;
57730;SDS011;43570;47.476;19.040;2023-09-08T04:47:14;11.45;;;7.78;;
57730;SDS011;43570;47.476;19.040;2023-09-08T04:49:39;11.05;;;7.80;;
57730;SDS011;43570;47.476;19.040;2023-09-08T04:52:05;10.55;;;7.32;;
57730;SDS011;43570;47.476;19.040;2023-09-08T04:54:30;11.12;;;7.80;;
57730;SDS011;43570;47.476;19.040;2023-09-08T04:56:56;12.50;;;8.38;;
57730;SDS011;43570;47.476;19.040;2023-09-08T04:59:22;15.05;;;8.60;;
57730;SDS011;43570;47.476;19.040;2023-09-08T05:01:48;11.23;;;7.95;;
57730;SDS011;43570;47.476;19.040;2023-09-08T05:04:14;9.77;;;7.75;;
57730;SDS011;43570;47.476;19.040;2023-09-08T05:06:39;10.85;;;8.23;;
57730;SDS011;43570;47.476;19.040;2023-09-08T05:09:04;13.30;;;7.97;;
57730;SDS011;43570;47.476;19.040;2023-09-08T05:11:30;10.07;;;8.38;;
57730;SDS011;43570;47.476;19.040;2023-09-08T05:13:56;12.90;;;8.55;;
57730;SDS011;43570;47.476;19.040;2023-09-08T05:16:22;12.77;;;7.97;;
57730;SDS011;43570;47.476;19.040;2023-09-08T05:19:01;11.38;;;8.13;;
57730;SDS011;43570;47.476;19.040;2023-09-08T05:21:33;14.55;;;8.80;;
57730;SDS011;43570;47.476;19.040;2023-09-08T05:23:59;14.70;;;8.25;;
57730;SDS011;43570;47.476;19.040;2023-09-08T05:26:24;14.82;;;8.80;;
57730;SDS011;43570;47.476;19.040;2023-09-08T05:28:50;12.55;;;8.43;;
57730;SDS011;43570;47.476;19.040;2023-09-08T05:31:15;13.18;;;8.73;;
57730;SDS011;43570;47.476;19.040;2023-09-08T05:33:42;11.95;;;8.13;;
57730;SDS011;43570;47.476;19.040;2023-09-08T05:36:09;13.95;;;8.07;;
57730;SDS011;43570;47.476;19.040;2023-09-08T05:38:36;10.98;;;8.45;;
57730;SDS011;43570;47.476;19.040;2023-09-08T05:41:02;11.25;;;8.50;;
57730;SDS011;43570;47.476;19.040;2023-09-08T05:43:28;14.90;;;10.10;;
57730;SDS011;43570;47.476;19.040;2023-09-08T05:45:53;12.32;;;8.35;;
57730;SDS011;43570;47.476;19.040;2023-09-08T05:48:19;12.95;;;8.77;;
57730;SDS011;43570;47.476;19.040;2023-09-08T05:50:44;12.37;;;7.57;;
57730;SDS011;43570;47.476;19.040;2023-09-08T05:53:10;11.02;;;8.05;;
57730;SDS011;43570;47.476;19.040;2023-09-08T05:55:35;17.33;;;8.77;;
57730;SDS011;43570;47.476;19.040;2023-09-08T05:58:00;13.13;;;8.25;;
57730;SDS011;43570;47.476;19.040;2023-09-08T06:00:26;13.77;;;8.20;;
57730;SDS011;43570;47.476;19.040;2023-09-08T06:02:51;12.52;;;7.72;;
57730;SDS011;43570;47.476;19.040;2023-09-08T06:05:17;11.50;;;8.15;;
57730;SDS011;43570;47.476;19.040;2023-09-08T06:07:42;11.27;;;8.07;;
57730;SDS011;43570;47.476;19.040;2023-09-08T06:10:08;10.73;;;7.53;;
57730;SDS011;43570;47.476;19.040;2023-09-08T06:12:33;11.40;;;7.97;;
57730;SDS011;43570;47.476;19.040;2023-09-08T06:14:59;10.07;;;7.60;;
57730;SDS011;43570;47.476;19.040;2023-09-08T06:17:24;10.95;;;7.68;;
57730;SDS011;43570;47.476;19.040;2023-09-08T06:19:50;11.07;;;7.93;;
57730;SDS011;43570;47.476;19.040;2023-09-08T06:22:15;9.90;;;7.50;;
57730;SDS011;43570;47.476;19.040;2023-09-08T06:24:41;10.68;;;8.02;;
57730;SDS011;43570;47.476;19.040;2023-09-08T06:27:07;10.55;;;7.95;;
57730;SDS011;43570;47.476;19.040;2023-09-08T06:29:32;10.77;;;7.80;;
57730;SDS011;43570;47.476;19.040;2023-09-08T06:31:58;12.02;;;8.73;;
57730;SDS011;43570;47.476;19.040;2023-09-08T06:34:23;13.07;;;7.72;;
57730;SDS011;43570;47.476;19.040;2023-09-08T06:36:49;9.35;;;7.37;;
57730;SDS011;43570;47.476;19.040;2023-09-08T06:39:14;12.95;;;7.53;;
57730;SDS011;43570;47.476;19.040;2023-09-08T06:41:39;11.82;;;7.80;;
57730;SDS011;43570;47.476;19.040;2023-09-08T06:44:05;12.40;;;6.90;;
57730;SDS011;43570;47.476;19.040;2023-09-08T06:46:30;11.68;;;7.95;;
57730;SDS011;43570;47.476;19.040;2023-09-08T06:48:56;10.20;;;7.55;;
57730;SDS011;43570;47.476;19.040;2023-09-08T06:51:21;11.07;;;8.50;;
57730;SDS011;43570;47.476;19.040;2023-09-08T06:53:53;10.68;;;7.37;;
57730;SDS011;43570;47.476;19.040;2023-09-08T06:56:20;11.75;;;7.47;;
57730;SDS011;43570;47.476;19.040;2023-09-08T06:58:46;10.88;;;7.82;;
57730;SDS011;43570;47.476;19.040;2023-09-08T07:01:11;11.10;;;7.72;;
57730;SDS011;43570;47.476;19.040;2023-09-08T07:03:36;12.18;;;8.02;;
57730;SDS011;43570;47.476;19.040;2023-09-08T07:06:02;10.38;;;7.60;;
57730;SDS011;43570;47.476;19.040;2023-09-08T07:08:28;11.85;;;7.65;;
57730;SDS011;43570;47.476;19.040;2023-09-08T07:10:54;12.13;;;8.70;;
57730;SDS011;43570;47.476;19.040;2023-09-08T07:13:19;12.65;;;7.72;;
57730;SDS011;43570;47.476;19.040;2023-09-08T07:15:45;11.48;;;7.70;;
57730;SDS011;43570;47.476;19.040;2023-09-08T07:18:10;12.25;;;7.53;;
57730;SDS011;43570;47.476;19.040;2023-09-08T07:20:35;16.30;;;8.18;;
57730;SDS011;43570;47.476;19.040;2023-09-08T07:23:01;10.35;;;7.10;;
57730;SDS011;43570;47.476;19.040;2023-09-08T07:25:26;11.20;;;8.13;;
57730;SDS011;43570;47.476;19.040;2023-09-08T07:27:52;11.70;;;7.62;;
57730;SDS011;43570;47.476;19.040;2023-09-08T07:30:18;10.05;;;7.28;;
57730;SDS011;43570;47.476;19.040;2023-09-08T07:32:44;11.77;;;7.50;;
57730;SDS011;43570;47.476;19.040;2023-09-08T07:35:10;10.00;;;6.90;;
57730;SDS011;43570;47.476;19.040;2023-09-08T07:37:39;21.48;;;6.95;;
57730;SDS011;43570;47.476;19.040;2023-09-08T07:40:06;10.27;;;7.43;;
57730;SDS011;43570;47.476;19.040;2023-09-08T07:42:32;10.70;;;7.30;;
57730;SDS011;43570;47.476;19.040;2023-09-08T07:44:58;12.68;;;7.72;;
57730;SDS011;43570;47.476;19.040;2023-09-08T07:47:23;13.43;;;8.40;;
57730;SDS011;43570;47.476;19.040;2023-09-08T07:49:48;14.85;;;8.60;;
57730;SDS011;43570;47.476;19.040;2023-09-08T07:52:14;10.85;;;7.18;;
57730;SDS011;43570;47.476;19.040;2023-09-08T07:54:39;12.77;;;7.47;;
57730;SDS011;43570;47.476;19.040;2023-09-08T07:57:05;12.75;;;7.82;;
57730;SDS011;43570;47.476;19.040;2023-09-08T07:59:30;14.50;;;6.80;;
57730;SDS011;43570;47.476;19.040;2023-09-08T08:01:56;11.85;;;7.72;;
57730;SDS011;43570;47.476;19.040;2023-09-08T08:04:21;10.13;;;7.22;;
57730;SDS011;43570;47.476;19.040;2023-09-08T08:06:46;10.23;;;7.12;;
57730;SDS011;43570;47.476;19.040;2023-09-08T08:19:00;10.30;;;7.78;;
57730;SDS011;43570;47.476;19.040;2023-09-08T08:21:26;13.93;;;7.75;;
57730;SDS011;43570;47.476;19.040;2023-09-08T08:23:51;12.27;;;7.85;;
57730;SDS011;43570;47.476;19.040;2023-09-08T08:26:17;13.43;;;6.95;;
57730;SDS011;43570;47.476;19.040;2023-09-08T08:28:43;13.75;;;7.32;;
57730;SDS011;43570;47.476;19.040;2023-09-08T08:31:08;12.73;;;7.53;;
57730;SDS011;43570;47.476;19.040;2023-09-08T08:33:34;10.43;;;7.12;;
57730;SDS011;43570;47.476;19.040;2023-09-08T08:35:59;14.38;;;7.12;;
57730;SDS011;43570;47.476;19.040;2023-09-08T08:38:25;10.85;;;7.45;;
57730;SDS011;43570;47.476;19.040;2023-09-08T08:40:51;11.23;;;7.43;;
57730;SDS011;43570;47.476;19.040;2023-09-08T08:43:16;9.90;;;7.35;;
57730;SDS011;43570;47.476;19.040;2023-09-08T08:45:42;10.30;;;7.20;;
57730;SDS011;43570;47.476;19.040;2023-09-08T08:48:08;10.38;;;6.90;;
57730;SDS011;43570;47.476;19.040;2023-09-08T08:50:34;12.85;;;6.82;;
57730;SDS011;43570;47.476;19.040;2023-09-08T08:53:00;12.95;;;7.78;;
57730;SDS011;43570;47.476;19.040;2023-09-08T08:55:27;10.25;;;7.43;;
57730;SDS011;43570;47.476;19.040;2023-09-08T08:57:54;10.60;;;7.93;;
57730;SDS011;43570;47.476;19.040;2023-09-08T09:00:20;11.07;;;7.47;;
57730;SDS011;43570;47.476;19.040;2023-09-08T09:02:46;12.77;;;7.47;;
57730;SDS011;43570;47.476;19.040;2023-09-08T09:05:14;15.55;;;7.85;;
57730;SDS011;43570;47.476;19.040;2023-09-08T09:07:41;11.82;;;7.80;;
57730;SDS011;43570;47.476;19.040;2023-09-08T09:10:06;15.02;;;9.18;;
57730;SDS011;43570;47.476;19.040;2023-09-08T09:12:32;10.50;;;7.78;;
57730;SDS011;43570;47.476;19.040;2023-09-08T09:14:58;12.50;;;7.60;;
57730;SDS011;43570;47.476;19.040;2023-09-08T09:17:25;14.50;;;10.38;;
57730;SDS011;43570;47.476;19.040;2023-09-08T09:19:51;11.68;;;8.10;;
57730;SDS011;43570;47.476;19.040;2023-09-08T09:22:20;15.02;;;8.27;;
57730;SDS011;43570;47.476;19.040;2023-09-08T09:24:47;17.15;;;13.60;;
57730;SDS011;43570;47.476;19.040;2023-09-08T09:27:12;9.55;;;7.18;;
57730;SDS011;43570;47.476;19.040;2023-09-08T09:29:45;9.13;;;6.95;;
57730;SDS011;43570;47.476;19.040;2023-09-08T09:32:15;12.25;;;7.95;;
57730;SDS011;43570;47.476;19.040;2023-09-08T09:34:51;14.27;;;7.65;;
57730;SDS011;43570;47.476;19.040;2023-09-08T09:37:21;13.13;;;7.50;;
57730;SDS011;43570;47.476;19.040;2023-09-08T09:39:50;12.93;;;7.50;;
57730;SDS011;43570;47.476;19.040;2023-09-08T09:42:19;12.27;;;8.57;;
57730;SDS011;43570;47.476;19.040;2023-09-08T09:44:49;13.50;;;8.35;;
57730;SDS011;43570;47.476;19.040;2023-09-08T09:47:16;9.70;;;6.85;;
57730;SDS011;43570;47.476;19.040;2023-09-08T09:49:45;11.23;;;7.25;;
57730;SDS011;43570;47.476;19.040;2023-09-08T09:52:12;12.43;;;7.32;;
57730;SDS011;43570;47.476;19.040;2023-09-08T09:54:39;12.45;;;7.28;;
57730;SDS011;43570;47.476;19.040;2023-09-08T09:57:06;12.33;;;8.07;;
57730;SDS011;43570;47.476;19.040;2023-09-08T09:59:31;9.43;;;6.60;;
57730;SDS011;43570;47.476;19.040;2023-09-08T10:01:58;11.05;;;7.07;;
57730;SDS011;43570;47.476;19.040;2023-09-08T10:04:24;9.02;;;6.68;;
57730;SDS011;43570;47.476;19.040;2023-09-08T10:06:50;8.98;;;6.68;;
57730;SDS011;43570;47.476;19.040;2023-09-08T10:09:17;11.30;;;8.15;;
57730;SDS011;43570;47.476;19.040;2023-09-08T10:11:47;12.18;;;7.45;;
57730;SDS011;43570;47.476;19.040;2023-09-08T10:14:17;11.38;;;7.40;;
57730;SDS011;43570;47.476;19.040;2023-09-08T10:16:43;10.50;;;7.30;;
57730;SDS011;43570;47.476;19.040;2023-09-08T10:19:10;11.50;;;7.10;;
57730;SDS011;43570;47.476;19.040;2023-09-08T10:21:42;12.15;;;7.15;;
57730;SDS011;43570;47.476;19.040;2023-09-08T10:26:56;9.55;;;6.22;;
57730;SDS011;43570;47.476;19.040;2023-09-08T10:29:26;9.52;;;5.75;;
57730;SDS011;43570;47.476;19.040;2023-09-08T10:31:52;7.65;;;5.60;;
57730;SDS011;43570;47.476;19.040;2023-09-08T10:34:19;9.50;;;6.37;;
57730;SDS011;43570;47.476;19.040;2023-09-08T10:36:45;11.85;;;6.07;;
57730;SDS011;43570;47.476;19.040;2023-09-08T10:44:44;12.98;;;6.62;;
57730;SDS011;43570;47.476;19.040;2023-09-08T10:47:30;9.43;;;5.53;;
57730;SDS011;43570;47.476;19.040;2023-09-08T10:50:15;9.15;;;6.03;;
57730;SDS011;43570;47.476;19.040;2023-09-08T10:52:41;11.90;;;6.87;;
57730;SDS011;43570;47.476;19.040;2023-09-08T10:55:06;6.62;;;5.30;;
57730;SDS011;43570;47.476;19.040;2023-09-08T10:57:32;10.82;;;5.22;;
57730;SDS011;43570;47.476;19.040;2023-09-08T11:00:00;10.10;;;6.15;;
57730;SDS011;43570;47.476;19.040;2023-09-08T11:02:36;12.03;;;5.63;;
57730;SDS011;43570;47.476;19.040;2023-09-08T11:05:13;8.43;;;5.75;;
57730;SDS011;43570;47.476;19.040;2023-09-08T11:07:41;7.32;;;4.93;;
57730;SDS011;43570;47.476;19.040;2023-09-08T11:10:07;9.82;;;5.78;;
57730;SDS011;43570;47.476;19.040;2023-09-08T11:12:33;10.90;;;5.82;;
57730;SDS011;43570;47.476;19.040;2023-09-08T11:14:59;7.57;;;4.80;;
57730;SDS011;43570;47.476;19.040;2023-09-08T11:17:33;7.90;;;5.25;;
57730;SDS011;43570;47.476;19.040;2023-09-08T11:19:59;8.90;;;5.50;;
57730;SDS011;43570;47.476;19.040;2023-09-08T11:22:25;7.60;;;4.97;;
57730;SDS011;43570;47.476;19.040;2023-09-08T11:24:52;8.50;;;5.43;;
57730;SDS011;43570;47.476;19.040;2023-09-08T11:27:18;7.90;;;5.37;;
57730;SDS011;43570;47.476;19.040;2023-09-08T11:29:44;8.88;;;5.50;;
57730;SDS011;43570;47.476;19.040;2023-09-08T11:32:10;8.27;;;5.28;;
57730;SDS011;43570;47.476;19.040;2023-09-08T11:34:35;8.35;;;5.32;;
57730;SDS011;43570;47.476;19.040;2023-09-08T11:37:08;9.63;;;5.70;;
57730;SDS011;43570;47.476;19.040;2023-09-08T11:39:45;7.18;;;5.30;;
57730;SDS011;43570;47.476;19.040;2023-09-08T11:42:14;8.60;;;5.43;;
57730;SDS011;43570;47.476;19.040;2023-09-08T11:44:40;7.43;;;5.00;;
57730;SDS011;43570;47.476;19.040;2023-09-08T11:47:08;7.60;;;5.80;;
57730;SDS011;43570;47.476;19.040;2023-09-08T11:49:39;10.18;;;5.07;;
57730;SDS011;43570;47.476;19.040;2023-09-08T11:52:05;8.02;;;4.87;;
57730;SDS011;43570;47.476;19.040;2023-09-08T11:54:31;8.88;;;5.82;;
57730;SDS011;43570;47.476;19.040;2023-09-08T11:56:58;7.37;;;5.03;;
57730;SDS011;43570;47.476;19.040;2023-09-08T11:59:25;7.25;;;5.25;;
57730;SDS011;43570;47.476;19.040;2023-09-08T12:01:51;6.45;;;4.97;;
57730;SDS011;43570;47.476;19.040;2023-09-08T12:04:17;7.45;;;4.87;;
57730;SDS011;43570;47.476;19.040;2023-09-08T12:06:45;10.23;;;5.07;;
57730;SDS011;43570;47.476;19.040;2023-09-08T12:09:11;8.10;;;5.70;;
57730;SDS011;43570;47.476;19.040;2023-09-08T12:11:36;6.65;;;5.40;;
57730;SDS011;43570;47.476;19.040;2023-09-08T12:14:06;8.07;;;5.32;;
57730;SDS011;43570;47.476;19.040;2023-09-08T12:16:33;9.68;;;5.37;;
57730;SDS011;43570;47.476;19.040;2023-09-08T12:18:58;7.35;;;5.10;;
57730;SDS011;43570;47.476;19.040;2023-09-08T12:21:24;7.55;;;5.35;;
57730;SDS011;43570;47.476;19.040;2023-09-08T12:23:50;7.90;;;5.40;;
57730;SDS011;43570;47.476;19.040;2023-09-08T12:26:16;10.05;;;4.75;;
57730;SDS011;43570;47.476;19.040;2023-09-08T12:28:42;9.13;;;5.50;;
57730;SDS011;43570;47.476;19.040;2023-09-08T12:31:08;8.85;;;5.80;;
57730;SDS011;43570;47.476;19.040;2023-09-08T12:33:34;7.70;;;5.15;;
57730;SDS011;43570;47.476;19.040;2023-09-08T12:36:06;6.68;;;4.85;;
57730;SDS011;43570;47.476;19.040;2023-09-08T12:38:40;6.62;;;4.47;;
57730;SDS011;43570;47.476;19.040;2023-09-08T12:41:06;7.68;;;4.93;;
57730;SDS011;43570;47.476;19.040;2023-09-08T12:43:31;8.95;;;5.60;;
57730;SDS011;43570;47.476;19.040;2023-09-08T12:45:57;9.57;;;5.00;;
57730;SDS011;43570;47.476;19.040;2023-09-08T12:48:22;8.40;;;4.82;;
57730;SDS011;43570;47.476;19.040;2023-09-08T12:50:48;12.27;;;5.20;;
57730;SDS011;43570;47.476;19.040;2023-09-08T12:53:14;8.43;;;5.00;;
57730;SDS011;43570;47.476;19.040;2023-09-08T12:55:40;8.05;;;5.57;;
57730;SDS011;43570;47.476;19.040;2023-09-08T12:58:05;7.50;;;5.07;;
57730;SDS011;43570;47.476;19.040;2023-09-08T13:00:31;7.78;;;5.03;;
57730;SDS011;43570;47.476;19.040;2023-09-08T13:02:58;10.10;;;5.77;;
57730;SDS011;43570;47.476;19.040;2023-09-08T13:05:24;8.25;;;5.45;;
57730;SDS011;43570;47.476;19.040;2023-09-08T13:07:49;11.23;;;6.05;;
57730;SDS011;43570;47.476;19.040;2023-09-08T13:10:15;8.25;;;5.75;;
57730;SDS011;43570;47.476;19.040;2023-09-08T13:12:41;7.37;;;4.90;;
57730;SDS011;43570;47.476;19.040;2023-09-08T13:15:07;8.35;;;5.12;;
57730;SDS011;43570;47.476;19.040;2023-09-08T13:17:33;7.70;;;4.97;;
57730;SDS011;43570;47.476;19.040;2023-09-08T13:19:58;8.23;;;5.12;;
57730;SDS011;43570;47.476;19.040;2023-09-08T13:22:24;8.20;;;5.53;;
57730;SDS011;43570;47.476;19.040;2023-09-08T13:24:49;7.62;;;4.95;;
57730;SDS011;43570;47.476;19.040;2023-09-08T13:27:15;7.65;;;5.25;;
57730;SDS011;43570;47.476;19.040;2023-09-08T13:29:42;8.40;;;5.03;;
57730;SDS011;43570;47.476;19.040;2023-09-08T13:32:09;6.90;;;4.70;;
57730;SDS011;43570;47.476;19.040;2023-09-08T13:34:35;9.00;;;5.28;;
57730;SDS011;43570;47.476;19.040;2023-09-08T13:37:01;5.97;;;4.62;;
57730;SDS011;43570;47.476;19.040;2023-09-08T13:39:27;10.18;;;5.10;;
57730;SDS011;43570;47.476;19.040;2023-09-08T13:41:54;7.40;;;5.32;;
57730;SDS011;43570;47.476;19.040;2023-09-08T13:44:21;8.23;;;5.40;;
57730;SDS011;43570;47.476;19.040;2023-09-08T13:46:48;7.03;;;5.40;;
57730;SDS011;43570;47.476;19.040;2023-09-08T13:49:14;7.03;;;5.07;;
57730;SDS011;43570;47.476;19.040;2023-09-08T13:51:41;7.68;;;4.72;;
57730;SDS011;43570;47.476;19.040;2023-09-08T13:54:07;8.63;;;5.50;;
57730;SDS011;43570;47.476;19.040;2023-09-08T13:56:33;7.68;;;5.32;;
57730;SDS011;43570;47.476;19.040;2023-09-08T13:58:59;8.52;;;5.50;;
57730;SDS011;43570;47.476;19.040;2023-09-08T14:01:26;7.43;;;5.75;;
57730;SDS011;43570;47.476;19.040;2023-09-08T14:03:54;7.33;;;5.27;;
57730;SDS011;43570;47.476;19.040;2023-09-08T14:06:22;8.55;;;5.30;;
57730;SDS011;43570;47.476;19.040;2023-09-08T14:08:50;7.25;;;5.07;;
57730;SDS011;43570;47.476;19.040;2023-09-08T14:11:16;8.10;;;4.97;;
57730;SDS011;43570;47.476;19.040;2023-09-08T14:13:42;7.65;;;4.43;;
57730;SDS011;43570;47.476;19.040;2023-09-08T14:16:08;7.20;;;4.93;;
57730;SDS011;43570;47.476;19.040;2023-09-08T14:18:34;6.78;;;4.50;;
57730;SDS011;43570;47.476;19.040;2023-09-08T14:21:00;8.93;;;5.93;;
57730;SDS011;43570;47.476;19.040;2023-09-08T14:23:26;6.85;;;4.78;;
57730;SDS011;43570;47.476;19.040;2023-09-08T14:25:53;9.30;;;5.40;;
57730;SDS011;43570;47.476;19.040;2023-09-08T14:28:21;7.47;;;5.35;;
57730;SDS011;43570;47.476;19.040;2023-09-08T14:30:46;9.80;;;4.70;;
57730;SDS011;43570;47.476;19.040;2023-09-08T14:33:12;7.12;;;4.93;;
57730;SDS011;43570;47.476;19.040;2023-09-08T14:35:42;8.38;;;5.80;;
57730;SDS011;43570;47.476;19.040;2023-09-08T14:38:09;10.05;;;5.20;;
57730;SDS011;43570;47.476;19.040;2023-09-08T14:40:34;7.50;;;5.03;;
57730;SDS011;43570;47.476;19.040;2023-09-08T14:43:00;8.15;;;5.20;;
57730;SDS011;43570;47.476;19.040;2023-09-08T14:45:26;9.07;;;5.05;;